sensor_id;sensor_type;location;lat;lon;timestamp;P1;durP1;ratioP1;P2;durP2;ratioP2
39886;SDS011;25559;44.738;20.980;2022-07-22T00:01:04;16.27;;;7.40;;
39886;SDS011;25559;44.738;20.980;2022-07-22T00:03:30;20.38;;;8.15;;
39886;SDS011;25559;44.738;20.980;2022-07-22T00:05:55;21.48;;;9.00;;
39886;SDS011;25559;44.738;20.980;2022-07-22T00:08:21;24.42;;;10.48;;
39886;SDS011;25559;44.738;20.980;2022-07-22T00:10:46;29.40;;;13.15;;
39886;SDS011;25559;44.738;20.980;2022-07-22T00:13:12;32.85;;;15.10;;
39886;SDS011;25559;44.738;20.980;2022-07-22T00:15:38;32.60;;;14.02;;
39886;SDS011;25559;44.738;20.980;2022-07-22T00:18:03;37.80;;;15.25;;
39886;SDS011;25559;44.738;20.980;2022-07-22T00:20:29;39.85;;;15.80;;
39886;SDS011;25559;44.738;20.980;2022-07-22T00:22:55;38.47;;;14.88;;
39886;SDS011;25559;44.738;20.980;2022-07-22T00:25:20;33.03;;;15.35;;
39886;SDS011;25559;44.738;20.980;2022-07-22T00:27:46;37.53;;;15.80;;
39886;SDS011;25559;44.738;20.980;2022-07-22T00:30:11;40.30;;;16.58;;
39886;SDS011;25559;44.738;20.980;2022-07-22T00:32:37;35.38;;;15.60;;
39886;SDS011;25559;44.738;20.980;2022-07-22T00:35:03;35.55;;;15.15;;
39886;SDS011;25559;44.738;20.980;2022-07-22T00:37:29;42.75;;;18.40;;
39886;SDS011;25559;44.738;20.980;2022-07-22T00:39:55;43.38;;;18.27;;
39886;SDS011;25559;44.738;20.980;2022-07-22T00:42:20;48.80;;;17.75;;
39886;SDS011;25559;44.738;20.980;2022-07-22T00:44:46;43.78;;;18.00;;
39886;SDS011;25559;44.738;20.980;2022-07-22T00:47:12;36.90;;;15.68;;
39886;SDS011;25559;44.738;20.980;2022-07-22T00:49:37;34.47;;;15.30;;
39886;SDS011;25559;44.738;20.980;2022-07-22T00:52:04;29.70;;;14.23;;
39886;SDS011;25559;44.738;20.980;2022-07-22T00:54:31;24.52;;;11.57;;
39886;SDS011;25559;44.738;20.980;2022-07-22T00:56:57;29.20;;;10.98;;
39886;SDS011;25559;44.738;20.980;2022-07-22T00:59:23;21.10;;;9.82;;
39886;SDS011;25559;44.738;20.980;2022-07-22T01:01:49;22.23;;;10.15;;
39886;SDS011;25559;44.738;20.980;2022-07-22T01:04:16;22.27;;;9.38;;
39886;SDS011;25559;44.738;20.980;2022-07-22T01:06:42;13.40;;;7.50;;
39886;SDS011;25559;44.738;20.980;2022-07-22T01:09:10;17.83;;;7.57;;
39886;SDS011;25559;44.738;20.980;2022-07-22T01:11:36;19.20;;;7.93;;
39886;SDS011;25559;44.738;20.980;2022-07-22T01:14:02;14.93;;;7.00;;
39886;SDS011;25559;44.738;20.980;2022-07-22T01:16:28;14.48;;;6.75;;
39886;SDS011;25559;44.738;20.980;2022-07-22T01:18:54;11.77;;;6.13;;
39886;SDS011;25559;44.738;20.980;2022-07-22T01:21:20;14.02;;;6.30;;
39886;SDS011;25559;44.738;20.980;2022-07-22T01:23:46;13.20;;;6.05;;
39886;SDS011;25559;44.738;20.980;2022-07-22T01:26:12;9.98;;;5.72;;
39886;SDS011;25559;44.738;20.980;2022-07-22T01:28:37;9.30;;;5.35;;
39886;SDS011;25559;44.738;20.980;2022-07-22T01:31:04;13.07;;;6.07;;
39886;SDS011;25559;44.738;20.980;2022-07-22T01:33:30;11.57;;;5.50;;
39886;SDS011;25559;44.738;20.980;2022-07-22T01:35:56;11.15;;;5.55;;
39886;SDS011;25559;44.738;20.980;2022-07-22T01:38:21;12.57;;;5.25;;
39886;SDS011;25559;44.738;20.980;2022-07-22T01:40:47;12.82;;;5.53;;
39886;SDS011;25559;44.738;20.980;2022-07-22T01:43:13;12.18;;;5.22;;
39886;SDS011;25559;44.738;20.980;2022-07-22T01:45:44;11.10;;;5.60;;
39886;SDS011;25559;44.738;20.980;2022-07-22T01:48:10;14.40;;;5.43;;
39886;SDS011;25559;44.738;20.980;2022-07-22T01:50:36;13.82;;;5.53;;
39886;SDS011;25559;44.738;20.980;2022-07-22T01:53:02;13.50;;;5.45;;
39886;SDS011;25559;44.738;20.980;2022-07-22T01:55:28;14.20;;;4.82;;
39886;SDS011;25559;44.738;20.980;2022-07-22T01:57:54;12.50;;;4.40;;
39886;SDS011;25559;44.738;20.980;2022-07-22T02:00:25;9.95;;;5.03;;
39886;SDS011;25559;44.738;20.980;2022-07-22T02:02:51;13.55;;;5.03;;
39886;SDS011;25559;44.738;20.980;2022-07-22T02:05:17;10.75;;;4.85;;
39886;SDS011;25559;44.738;20.980;2022-07-22T02:07:43;11.23;;;5.78;;
39886;SDS011;25559;44.738;20.980;2022-07-22T02:10:09;9.80;;;4.93;;
39886;SDS011;25559;44.738;20.980;2022-07-22T02:12:35;9.75;;;5.15;;
39886;SDS011;25559;44.738;20.980;2022-07-22T02:15:02;10.35;;;5.40;;
39886;SDS011;25559;44.738;20.980;2022-07-22T02:17:29;11.15;;;5.43;;
39886;SDS011;25559;44.738;20.980;2022-07-22T02:19:54;12.82;;;5.97;;
39886;SDS011;25559;44.738;20.980;2022-07-22T02:22:20;14.48;;;6.50;;
39886;SDS011;25559;44.738;20.980;2022-07-22T02:24:46;10.88;;;6.00;;
39886;SDS011;25559;44.738;20.980;2022-07-22T02:27:12;10.43;;;5.47;;
39886;SDS011;25559;44.738;20.980;2022-07-22T02:29:39;11.13;;;6.32;;
39886;SDS011;25559;44.738;20.980;2022-07-22T02:32:05;13.45;;;5.30;;
39886;SDS011;25559;44.738;20.980;2022-07-22T02:34:31;12.52;;;5.35;;
39886;SDS011;25559;44.738;20.980;2022-07-22T02:36:57;12.50;;;5.30;;
39886;SDS011;25559;44.738;20.980;2022-07-22T02:39:22;11.65;;;5.25;;
39886;SDS011;25559;44.738;20.980;2022-07-22T02:41:48;11.00;;;5.00;;
39886;SDS011;25559;44.738;20.980;2022-07-22T02:44:14;10.90;;;5.07;;
39886;SDS011;25559;44.738;20.980;2022-07-22T02:46:40;15.05;;;5.28;;
39886;SDS011;25559;44.738;20.980;2022-07-22T02:49:13;12.20;;;5.32;;
39886;SDS011;25559;44.738;20.980;2022-07-22T02:51:39;11.52;;;5.05;;
39886;SDS011;25559;44.738;20.980;2022-07-22T02:54:05;17.85;;;5.50;;
39886;SDS011;25559;44.738;20.980;2022-07-22T02:56:31;11.20;;;5.63;;
39886;SDS011;25559;44.738;20.980;2022-07-22T02:58:57;15.80;;;5.70;;
39886;SDS011;25559;44.738;20.980;2022-07-22T03:01:23;20.65;;;5.63;;
39886;SDS011;25559;44.738;20.980;2022-07-22T03:03:56;11.57;;;6.05;;
39886;SDS011;25559;44.738;20.980;2022-07-22T03:06:22;27.00;;;10.00;;
39886;SDS011;25559;44.738;20.980;2022-07-22T03:08:59;32.47;;;12.90;;
39886;SDS011;25559;44.738;20.980;2022-07-22T03:11:26;33.92;;;14.00;;
39886;SDS011;25559;44.738;20.980;2022-07-22T03:13:51;46.10;;;16.58;;
39886;SDS011;25559;44.738;20.980;2022-07-22T03:16:18;48.25;;;18.23;;
39886;SDS011;25559;44.738;20.980;2022-07-22T03:18:45;45.30;;;20.27;;
39886;SDS011;25559;44.738;20.980;2022-07-22T03:21:11;67.63;;;24.60;;
39886;SDS011;25559;44.738;20.980;2022-07-22T03:23:37;104.95;;;35.33;;
39886;SDS011;25559;44.738;20.980;2022-07-22T03:26:02;95.40;;;35.75;;
39886;SDS011;25559;44.738;20.980;2022-07-22T03:28:28;72.75;;;25.95;;
39886;SDS011;25559;44.738;20.980;2022-07-22T03:30:54;45.03;;;15.40;;
39886;SDS011;25559;44.738;20.980;2022-07-22T03:33:20;33.35;;;12.95;;
39886;SDS011;25559;44.738;20.980;2022-07-22T03:35:45;27.27;;;9.38;;
39886;SDS011;25559;44.738;20.980;2022-07-22T03:38:12;25.60;;;9.70;;
39886;SDS011;25559;44.738;20.980;2022-07-22T03:40:38;21.70;;;9.10;;
39886;SDS011;25559;44.738;20.980;2022-07-22T03:43:04;18.05;;;8.88;;
39886;SDS011;25559;44.738;20.980;2022-07-22T03:45:31;21.90;;;9.10;;
39886;SDS011;25559;44.738;20.980;2022-07-22T03:47:57;19.25;;;7.88;;
39886;SDS011;25559;44.738;20.980;2022-07-22T03:50:29;19.90;;;7.95;;
39886;SDS011;25559;44.738;20.980;2022-07-22T03:52:54;22.65;;;8.25;;
39886;SDS011;25559;44.738;20.980;2022-07-22T03:55:20;20.27;;;8.50;;
39886;SDS011;25559;44.738;20.980;2022-07-22T03:57:49;16.58;;;8.57;;
39886;SDS011;25559;44.738;20.980;2022-07-22T04:00:28;21.63;;;8.27;;
39886;SDS011;25559;44.738;20.980;2022-07-22T04:02:55;20.48;;;9.18;;
39886;SDS011;25559;44.738;20.980;2022-07-22T04:05:44;19.35;;;8.35;;
39886;SDS011;25559;44.738;20.980;2022-07-22T04:08:11;27.30;;;8.95;;
39886;SDS011;25559;44.738;20.980;2022-07-22T04:10:37;28.20;;;11.27;;
39886;SDS011;25559;44.738;20.980;2022-07-22T04:13:03;18.60;;;8.05;;
39886;SDS011;25559;44.738;20.980;2022-07-22T04:15:41;23.00;;;8.63;;
39886;SDS011;25559;44.738;20.980;2022-07-22T04:18:06;16.95;;;7.20;;
39886;SDS011;25559;44.738;20.980;2022-07-22T04:20:32;24.50;;;7.10;;
39886;SDS011;25559;44.738;20.980;2022-07-22T04:23:16;17.67;;;7.57;;
39886;SDS011;25559;44.738;20.980;2022-07-22T04:25:42;18.40;;;8.05;;
39886;SDS011;25559;44.738;20.980;2022-07-22T04:28:09;21.60;;;6.78;;
39886;SDS011;25559;44.738;20.980;2022-07-22T04:30:36;23.55;;;8.73;;
39886;SDS011;25559;44.738;20.980;2022-07-22T04:33:01;21.83;;;9.25;;
39886;SDS011;25559;44.738;20.980;2022-07-22T04:35:27;20.65;;;9.43;;
39886;SDS011;25559;44.738;20.980;2022-07-22T04:38:07;25.95;;;10.10;;
39886;SDS011;25559;44.738;20.980;2022-07-22T04:40:34;28.75;;;13.27;;
39886;SDS011;25559;44.738;20.980;2022-07-22T04:43:00;21.30;;;10.15;;
39886;SDS011;25559;44.738;20.980;2022-07-22T04:45:25;25.88;;;11.73;;
39886;SDS011;25559;44.738;20.980;2022-07-22T04:47:51;33.97;;;12.98;;
39886;SDS011;25559;44.738;20.980;2022-07-22T04:50:16;35.55;;;14.27;;
39886;SDS011;25559;44.738;20.980;2022-07-22T04:52:42;34.38;;;14.02;;
39886;SDS011;25559;44.738;20.980;2022-07-22T04:55:08;31.40;;;13.43;;
39886;SDS011;25559;44.738;20.980;2022-07-22T04:57:34;34.15;;;13.10;;
39886;SDS011;25559;44.738;20.980;2022-07-22T05:00:03;25.75;;;11.50;;
39886;SDS011;25559;44.738;20.980;2022-07-22T05:02:35;30.33;;;13.05;;
39886;SDS011;25559;44.738;20.980;2022-07-22T05:05:01;27.60;;;11.63;;
39886;SDS011;25559;44.738;20.980;2022-07-22T05:07:26;24.20;;;12.15;;
39886;SDS011;25559;44.738;20.980;2022-07-22T05:09:52;26.63;;;11.80;;
39886;SDS011;25559;44.738;20.980;2022-07-22T05:12:18;23.73;;;10.48;;
39886;SDS011;25559;44.738;20.980;2022-07-22T05:14:43;28.10;;;11.95;;
39886;SDS011;25559;44.738;20.980;2022-07-22T05:17:12;24.65;;;11.23;;
39886;SDS011;25559;44.738;20.980;2022-07-22T05:19:45;23.83;;;10.82;;
39886;SDS011;25559;44.738;20.980;2022-07-22T05:22:11;20.27;;;10.80;;
39886;SDS011;25559;44.738;20.980;2022-07-22T05:24:36;24.08;;;11.27;;
39886;SDS011;25559;44.738;20.980;2022-07-22T05:27:02;25.40;;;11.05;;
39886;SDS011;25559;44.738;20.980;2022-07-22T05:29:28;50.72;;;12.70;;
39886;SDS011;25559;44.738;20.980;2022-07-22T05:31:54;22.83;;;11.75;;
39886;SDS011;25559;44.738;20.980;2022-07-22T05:34:19;32.17;;;11.38;;
39886;SDS011;25559;44.738;20.980;2022-07-22T05:36:51;20.10;;;10.45;;
39886;SDS011;25559;44.738;20.980;2022-07-22T05:39:17;22.45;;;10.02;;
39886;SDS011;25559;44.738;20.980;2022-07-22T05:41:43;28.58;;;11.40;;
39886;SDS011;25559;44.738;20.980;2022-07-22T05:44:09;25.70;;;10.88;;
39886;SDS011;25559;44.738;20.980;2022-07-22T05:46:34;28.10;;;10.27;;
39886;SDS011;25559;44.738;20.980;2022-07-22T05:49:00;33.05;;;10.52;;
39886;SDS011;25559;44.738;20.980;2022-07-22T05:51:29;29.95;;;11.00;;
39886;SDS011;25559;44.738;20.980;2022-07-22T05:53:55;40.30;;;12.10;;
39886;SDS011;25559;44.738;20.980;2022-07-22T05:56:21;28.90;;;11.75;;
39886;SDS011;25559;44.738;20.980;2022-07-22T05:58:48;26.02;;;11.07;;
39886;SDS011;25559;44.738;20.980;2022-07-22T06:01:14;42.72;;;25.20;;
39886;SDS011;25559;44.738;20.980;2022-07-22T06:03:40;96.25;;;62.53;;
39886;SDS011;25559;44.738;20.980;2022-07-22T06:06:06;28.88;;;12.85;;
39886;SDS011;25559;44.738;20.980;2022-07-22T06:08:35;24.15;;;10.10;;
39886;SDS011;25559;44.738;20.980;2022-07-22T06:11:02;23.30;;;8.63;;
39886;SDS011;25559;44.738;20.980;2022-07-22T06:13:28;18.58;;;8.75;;
39886;SDS011;25559;44.738;20.980;2022-07-22T06:15:54;19.75;;;8.80;;
39886;SDS011;25559;44.738;20.980;2022-07-22T06:18:20;23.15;;;9.43;;
39886;SDS011;25559;44.738;20.980;2022-07-22T06:20:45;26.02;;;8.80;;
39886;SDS011;25559;44.738;20.980;2022-07-22T06:23:11;16.13;;;8.10;;
39886;SDS011;25559;44.738;20.980;2022-07-22T06:25:37;20.65;;;8.25;;
39886;SDS011;25559;44.738;20.980;2022-07-22T06:28:03;18.55;;;8.50;;
39886;SDS011;25559;44.738;20.980;2022-07-22T06:30:29;20.15;;;8.55;;
39886;SDS011;25559;44.738;20.980;2022-07-22T06:32:55;18.15;;;8.05;;
39886;SDS011;25559;44.738;20.980;2022-07-22T06:35:21;20.08;;;8.95;;
39886;SDS011;25559;44.738;20.980;2022-07-22T06:37:46;20.73;;;8.48;;
39886;SDS011;25559;44.738;20.980;2022-07-22T06:40:12;19.75;;;8.25;;
39886;SDS011;25559;44.738;20.980;2022-07-22T06:43:04;18.00;;;6.72;;
39886;SDS011;25559;44.738;20.980;2022-07-22T06:45:55;16.83;;;6.40;;
39886;SDS011;25559;44.738;20.980;2022-07-22T06:48:32;16.70;;;6.20;;
39886;SDS011;25559;44.738;20.980;2022-07-22T06:50:57;11.43;;;5.97;;
39886;SDS011;25559;44.738;20.980;2022-07-22T06:53:23;11.48;;;5.85;;
39886;SDS011;25559;44.738;20.980;2022-07-22T06:55:49;12.85;;;5.60;;
39886;SDS011;25559;44.738;20.980;2022-07-22T06:58:14;12.35;;;5.32;;
39886;SDS011;25559;44.738;20.980;2022-07-22T07:00:40;10.98;;;5.20;;
39886;SDS011;25559;44.738;20.980;2022-07-22T07:03:26;10.88;;;5.25;;
39886;SDS011;25559;44.738;20.980;2022-07-22T07:05:56;8.57;;;5.10;;
39886;SDS011;25559;44.738;20.980;2022-07-22T07:08:24;18.92;;;5.05;;
39886;SDS011;25559;44.738;20.980;2022-07-22T07:10:49;12.18;;;5.20;;
39886;SDS011;25559;44.738;20.980;2022-07-22T07:13:17;16.65;;;6.78;;
39886;SDS011;25559;44.738;20.980;2022-07-22T07:15:44;9.88;;;5.00;;
39886;SDS011;25559;44.738;20.980;2022-07-22T07:18:10;13.32;;;5.47;;
39886;SDS011;25559;44.738;20.980;2022-07-22T07:20:36;17.40;;;5.57;;
39886;SDS011;25559;44.738;20.980;2022-07-22T07:23:04;9.60;;;4.75;;
39886;SDS011;25559;44.738;20.980;2022-07-22T07:25:33;10.50;;;4.93;;
39886;SDS011;25559;44.738;20.980;2022-07-22T07:27:59;11.75;;;4.65;;
39886;SDS011;25559;44.738;20.980;2022-07-22T07:30:48;9.90;;;4.05;;
39886;SDS011;25559;44.738;20.980;2022-07-22T07:33:16;11.73;;;5.20;;
39886;SDS011;25559;44.738;20.980;2022-07-22T07:35:42;9.70;;;5.03;;
39886;SDS011;25559;44.738;20.980;2022-07-22T07:38:08;13.40;;;4.97;;
39886;SDS011;25559;44.738;20.980;2022-07-22T07:40:34;15.93;;;5.35;;
39886;SDS011;25559;44.738;20.980;2022-07-22T07:43:00;14.23;;;5.32;;
39886;SDS011;25559;44.738;20.980;2022-07-22T07:45:27;11.77;;;4.93;;
39886;SDS011;25559;44.738;20.980;2022-07-22T07:47:52;17.70;;;5.03;;
39886;SDS011;25559;44.738;20.980;2022-07-22T07:50:18;17.58;;;5.30;;
39886;SDS011;25559;44.738;20.980;2022-07-22T07:52:44;10.52;;;4.78;;
39886;SDS011;25559;44.738;20.980;2022-07-22T07:55:13;17.48;;;5.95;;
39886;SDS011;25559;44.738;20.980;2022-07-22T07:57:41;9.73;;;4.95;;
39886;SDS011;25559;44.738;20.980;2022-07-22T08:00:12;15.30;;;5.10;;
39886;SDS011;25559;44.738;20.980;2022-07-22T08:02:42;13.95;;;5.90;;
39886;SDS011;25559;44.738;20.980;2022-07-22T08:05:09;9.30;;;4.57;;
39886;SDS011;25559;44.738;20.980;2022-07-22T08:07:36;13.02;;;4.70;;
39886;SDS011;25559;44.738;20.980;2022-07-22T08:10:03;66.10;;;9.07;;
39886;SDS011;25559;44.738;20.980;2022-07-22T08:12:52;12.90;;;5.38;;
39886;SDS011;25559;44.738;20.980;2022-07-22T08:15:39;18.52;;;5.05;;
39886;SDS011;25559;44.738;20.980;2022-07-22T08:18:09;34.05;;;6.22;;
39886;SDS011;25559;44.738;20.980;2022-07-22T08:20:35;11.23;;;5.93;;
39886;SDS011;25559;44.738;20.980;2022-07-22T08:23:00;16.00;;;5.95;;
39886;SDS011;25559;44.738;20.980;2022-07-22T08:25:28;12.32;;;5.85;;
39886;SDS011;25559;44.738;20.980;2022-07-22T08:27:55;14.00;;;6.25;;
39886;SDS011;25559;44.738;20.980;2022-07-22T08:30:22;18.23;;;6.00;;
39886;SDS011;25559;44.738;20.980;2022-07-22T08:32:53;11.93;;;5.72;;
39886;SDS011;25559;44.738;20.980;2022-07-22T08:35:18;11.88;;;4.97;;
39886;SDS011;25559;44.738;20.980;2022-07-22T08:37:44;17.08;;;6.25;;
39886;SDS011;25559;44.738;20.980;2022-07-22T08:40:11;13.98;;;6.47;;
39886;SDS011;25559;44.738;20.980;2022-07-22T08:42:38;14.25;;;5.72;;
39886;SDS011;25559;44.738;20.980;2022-07-22T08:45:04;22.05;;;6.28;;
39886;SDS011;25559;44.738;20.980;2022-07-22T08:47:31;10.35;;;5.63;;
39886;SDS011;25559;44.738;20.980;2022-07-22T08:50:13;17.30;;;6.03;;
39886;SDS011;25559;44.738;20.980;2022-07-22T08:52:58;12.10;;;5.85;;
39886;SDS011;25559;44.738;20.980;2022-07-22T08:55:24;15.70;;;6.47;;
39886;SDS011;25559;44.738;20.980;2022-07-22T08:57:50;14.70;;;6.05;;
39886;SDS011;25559;44.738;20.980;2022-07-22T09:00:17;11.02;;;5.90;;
39886;SDS011;25559;44.738;20.980;2022-07-22T09:02:45;15.88;;;6.07;;
39886;SDS011;25559;44.738;20.980;2022-07-22T09:05:14;13.15;;;6.50;;
39886;SDS011;25559;44.738;20.980;2022-07-22T09:07:42;14.25;;;6.43;;
39886;SDS011;25559;44.738;20.980;2022-07-22T09:10:21;10.82;;;6.18;;
39886;SDS011;25559;44.738;20.980;2022-07-22T09:13:06;19.02;;;6.60;;
39886;SDS011;25559;44.738;20.980;2022-07-22T09:15:52;16.83;;;7.30;;
39886;SDS011;25559;44.738;20.980;2022-07-22T09:18:52;17.13;;;7.00;;
39886;SDS011;25559;44.738;20.980;2022-07-22T09:21:44;12.80;;;6.47;;
39886;SDS011;25559;44.738;20.980;2022-07-22T09:24:32;17.67;;;7.03;;
39886;SDS011;25559;44.738;20.980;2022-07-22T09:27:23;13.80;;;6.50;;
39886;SDS011;25559;44.738;20.980;2022-07-22T09:30:13;12.95;;;6.85;;
39886;SDS011;25559;44.738;20.980;2022-07-22T09:32:48;12.32;;;6.35;;
39886;SDS011;25559;44.738;20.980;2022-07-22T09:35:22;16.42;;;6.07;;
39886;SDS011;25559;44.738;20.980;2022-07-22T09:37:53;13.27;;;5.93;;
39886;SDS011;25559;44.738;20.980;2022-07-22T09:40:21;13.48;;;5.15;;
39886;SDS011;25559;44.738;20.980;2022-07-22T09:42:52;9.20;;;4.85;;
39886;SDS011;25559;44.738;20.980;2022-07-22T09:45:20;10.75;;;5.03;;
39886;SDS011;25559;44.738;20.980;2022-07-22T09:47:47;12.00;;;5.10;;
39886;SDS011;25559;44.738;20.980;2022-07-22T09:50:32;8.35;;;4.72;;
39886;SDS011;25559;44.738;20.980;2022-07-22T09:53:19;9.18;;;4.55;;
39886;SDS011;25559;44.738;20.980;2022-07-22T09:55:59;9.05;;;4.38;;
39886;SDS011;25559;44.738;20.980;2022-07-22T09:58:26;11.77;;;5.45;;
39886;SDS011;25559;44.738;20.980;2022-07-22T10:00:53;10.13;;;4.47;;
39886;SDS011;25559;44.738;20.980;2022-07-22T10:03:29;7.80;;;4.43;;
39886;SDS011;25559;44.738;20.980;2022-07-22T10:05:59;10.68;;;3.83;;
39886;SDS011;25559;44.738;20.980;2022-07-22T10:08:27;9.95;;;4.05;;
39886;SDS011;25559;44.738;20.980;2022-07-22T10:10:58;10.43;;;4.70;;
39886;SDS011;25559;44.738;20.980;2022-07-22T10:13:26;14.80;;;5.15;;
39886;SDS011;25559;44.738;20.980;2022-07-22T10:15:51;8.60;;;4.93;;
39886;SDS011;25559;44.738;20.980;2022-07-22T10:18:18;13.00;;;3.60;;
39886;SDS011;25559;44.738;20.980;2022-07-22T10:20:46;12.00;;;4.45;;
39886;SDS011;25559;44.738;20.980;2022-07-22T10:23:12;8.68;;;4.53;;
39886;SDS011;25559;44.738;20.980;2022-07-22T10:25:49;10.68;;;4.00;;
39886;SDS011;25559;44.738;20.980;2022-07-22T10:28:41;10.90;;;4.00;;
39886;SDS011;25559;44.738;20.980;2022-07-22T10:31:20;10.70;;;3.30;;
39886;SDS011;25559;44.738;20.980;2022-07-22T10:33:51;6.80;;;3.40;;
39886;SDS011;25559;44.738;20.980;2022-07-22T10:39:08;4.38;;;2.40;;
39886;SDS011;25559;44.738;20.980;2022-07-22T10:41:36;7.70;;;2.78;;
39886;SDS011;25559;44.738;20.980;2022-07-22T10:44:06;4.18;;;2.42;;
39886;SDS011;25559;44.738;20.980;2022-07-22T10:49:16;4.63;;;2.60;;
39886;SDS011;25559;44.738;20.980;2022-07-22T10:57:45;6.82;;;2.67;;
39886;SDS011;25559;44.738;20.980;2022-07-22T11:00:12;8.00;;;2.90;;
39886;SDS011;25559;44.738;20.980;2022-07-22T11:02:37;3.90;;;2.55;;
39886;SDS011;25559;44.738;20.980;2022-07-22T11:05:03;12.43;;;2.78;;
39886;SDS011;25559;44.738;20.980;2022-07-22T11:07:30;4.00;;;2.20;;
39886;SDS011;25559;44.738;20.980;2022-07-22T11:10:18;6.25;;;2.15;;
39886;SDS011;25559;44.738;20.980;2022-07-22T11:12:43;3.75;;;2.20;;
39886;SDS011;25559;44.738;20.980;2022-07-22T11:15:09;5.20;;;2.20;;
39886;SDS011;25559;44.738;20.980;2022-07-22T11:17:36;4.55;;;2.63;;
39886;SDS011;25559;44.738;20.980;2022-07-22T11:20:03;15.25;;;2.35;;
39886;SDS011;25559;44.738;20.980;2022-07-22T11:22:31;5.40;;;2.25;;
39886;SDS011;25559;44.738;20.980;2022-07-22T11:24:58;8.18;;;2.08;;
39886;SDS011;25559;44.738;20.980;2022-07-22T11:27:29;5.18;;;2.30;;
39886;SDS011;25559;44.738;20.980;2022-07-22T11:29:54;4.45;;;2.47;;
39886;SDS011;25559;44.738;20.980;2022-07-22T11:32:22;5.60;;;2.60;;
39886;SDS011;25559;44.738;20.980;2022-07-22T11:34:48;6.47;;;2.47;;
39886;SDS011;25559;44.738;20.980;2022-07-22T11:37:18;2.80;;;2.20;;
39886;SDS011;25559;44.738;20.980;2022-07-22T11:39:48;6.13;;;2.75;;
39886;SDS011;25559;44.738;20.980;2022-07-22T11:42:16;5.22;;;2.25;;
39886;SDS011;25559;44.738;20.980;2022-07-22T11:44:42;9.93;;;2.90;;
39886;SDS011;25559;44.738;20.980;2022-07-22T11:47:08;5.68;;;2.65;;
39886;SDS011;25559;44.738;20.980;2022-07-22T11:49:36;4.32;;;2.42;;
39886;SDS011;25559;44.738;20.980;2022-07-22T11:52:04;6.38;;;2.65;;
39886;SDS011;25559;44.738;20.980;2022-07-22T11:54:32;5.32;;;2.40;;
39886;SDS011;25559;44.738;20.980;2022-07-22T11:56:58;7.28;;;2.50;;
39886;SDS011;25559;44.738;20.980;2022-07-22T11:59:24;5.95;;;2.50;;
39886;SDS011;25559;44.738;20.980;2022-07-22T12:01:50;4.15;;;2.65;;
39886;SDS011;25559;44.738;20.980;2022-07-22T12:04:17;4.60;;;2.80;;
39886;SDS011;25559;44.738;20.980;2022-07-22T12:06:44;9.05;;;2.85;;
39886;SDS011;25559;44.738;20.980;2022-07-22T12:11:43;6.07;;;2.78;;
39886;SDS011;25559;44.738;20.980;2022-07-22T12:14:13;3.80;;;2.45;;
39886;SDS011;25559;44.738;20.980;2022-07-22T12:16:41;8.10;;;3.15;;
39886;SDS011;25559;44.738;20.980;2022-07-22T12:19:09;5.40;;;2.70;;
39886;SDS011;25559;44.738;20.980;2022-07-22T12:22:00;6.53;;;2.88;;
39886;SDS011;25559;44.738;20.980;2022-07-22T12:24:31;4.72;;;2.60;;
39886;SDS011;25559;44.738;20.980;2022-07-22T12:27:01;8.80;;;3.00;;
39886;SDS011;25559;44.738;20.980;2022-07-22T12:29:30;5.50;;;3.20;;
39886;SDS011;25559;44.738;20.980;2022-07-22T12:32:08;5.78;;;2.70;;
39886;SDS011;25559;44.738;20.980;2022-07-22T12:35:03;6.55;;;2.47;;
39886;SDS011;25559;44.738;20.980;2022-07-22T12:37:42;9.23;;;2.60;;
39886;SDS011;25559;44.738;20.980;2022-07-22T12:40:10;6.10;;;2.97;;
39886;SDS011;25559;44.738;20.980;2022-07-22T12:42:45;6.25;;;3.03;;
39886;SDS011;25559;44.738;20.980;2022-07-22T12:45:32;5.72;;;2.55;;
39886;SDS011;25559;44.738;20.980;2022-07-22T12:50:53;4.53;;;2.75;;
39886;SDS011;25559;44.738;20.980;2022-07-22T12:53:24;5.82;;;2.70;;
39886;SDS011;25559;44.738;20.980;2022-07-22T12:55:54;8.75;;;2.88;;
39886;SDS011;25559;44.738;20.980;2022-07-22T12:58:28;4.57;;;2.63;;
39886;SDS011;25559;44.738;20.980;2022-07-22T13:00:56;7.07;;;2.78;;
39886;SDS011;25559;44.738;20.980;2022-07-22T13:03:24;8.15;;;3.05;;
39886;SDS011;25559;44.738;20.980;2022-07-22T13:05:53;7.60;;;3.08;;
39886;SDS011;25559;44.738;20.980;2022-07-22T13:08:20;8.27;;;3.60;;
39886;SDS011;25559;44.738;20.980;2022-07-22T13:10:47;8.85;;;3.25;;
39886;SDS011;25559;44.738;20.980;2022-07-22T13:13:13;7.47;;;3.42;;
39886;SDS011;25559;44.738;20.980;2022-07-22T13:15:38;15.10;;;3.47;;
39886;SDS011;25559;44.738;20.980;2022-07-22T13:18:04;16.35;;;3.60;;
39886;SDS011;25559;44.738;20.980;2022-07-22T13:20:30;7.20;;;3.25;;
39886;SDS011;25559;44.738;20.980;2022-07-22T13:22:55;11.68;;;3.30;;
39886;SDS011;25559;44.738;20.980;2022-07-22T13:25:21;5.78;;;3.25;;
39886;SDS011;25559;44.738;20.980;2022-07-22T13:27:47;7.40;;;3.33;;
39886;SDS011;25559;44.738;20.980;2022-07-22T13:30:13;5.80;;;2.83;;
39886;SDS011;25559;44.738;20.980;2022-07-22T13:32:38;9.55;;;2.90;;
39886;SDS011;25559;44.738;20.980;2022-07-22T13:35:04;5.93;;;3.25;;
39886;SDS011;25559;44.738;20.980;2022-07-22T13:37:30;5.60;;;3.38;;
39886;SDS011;25559;44.738;20.980;2022-07-22T13:39:57;8.07;;;3.10;;
39886;SDS011;25559;44.738;20.980;2022-07-22T13:42:22;7.45;;;3.10;;
39886;SDS011;25559;44.738;20.980;2022-07-22T13:44:48;5.10;;;3.00;;
39886;SDS011;25559;44.738;20.980;2022-07-22T13:47:16;4.38;;;2.85;;
39886;SDS011;25559;44.738;20.980;2022-07-22T13:49:42;7.38;;;2.63;;
39886;SDS011;25559;44.738;20.980;2022-07-22T13:52:12;5.10;;;2.80;;
39886;SDS011;25559;44.738;20.980;2022-07-22T13:54:38;6.50;;;3.50;;
39886;SDS011;25559;44.738;20.980;2022-07-22T13:57:05;5.68;;;3.10;;
39886;SDS011;25559;44.738;20.980;2022-07-22T13:59:31;7.82;;;4.50;;
39886;SDS011;25559;44.738;20.980;2022-07-22T14:01:57;12.20;;;4.20;;
39886;SDS011;25559;44.738;20.980;2022-07-22T14:04:23;3.42;;;2.45;;
39886;SDS011;25559;44.738;20.980;2022-07-22T14:06:49;5.63;;;2.97;;
39886;SDS011;25559;44.738;20.980;2022-07-22T14:09:15;4.32;;;2.58;;
39886;SDS011;25559;44.738;20.980;2022-07-22T14:11:41;7.90;;;2.72;;
39886;SDS011;25559;44.738;20.980;2022-07-22T14:14:07;7.55;;;2.35;;
39886;SDS011;25559;44.738;20.980;2022-07-22T14:16:34;5.97;;;2.40;;
39886;SDS011;25559;44.738;20.980;2022-07-22T14:19:02;9.43;;;2.92;;
39886;SDS011;25559;44.738;20.980;2022-07-22T14:21:31;7.00;;;2.90;;
39886;SDS011;25559;44.738;20.980;2022-07-22T14:23:57;8.00;;;2.83;;
39886;SDS011;25559;44.738;20.980;2022-07-22T14:26:23;5.95;;;2.78;;
39886;SDS011;25559;44.738;20.980;2022-07-22T14:28:48;6.82;;;2.80;;
39886;SDS011;25559;44.738;20.980;2022-07-22T14:31:14;5.65;;;2.55;;
39886;SDS011;25559;44.738;20.980;2022-07-22T14:33:40;7.75;;;3.35;;
39886;SDS011;25559;44.738;20.980;2022-07-22T14:36:06;7.13;;;3.88;;
39886;SDS011;25559;44.738;20.980;2022-07-22T14:38:32;8.50;;;2.85;;
39886;SDS011;25559;44.738;20.980;2022-07-22T14:40:58;4.10;;;2.92;;
39886;SDS011;25559;44.738;20.980;2022-07-22T14:43:23;9.60;;;6.00;;
39886;SDS011;25559;44.738;20.980;2022-07-22T14:45:49;8.60;;;4.43;;
39886;SDS011;25559;44.738;20.980;2022-07-22T14:48:14;7.53;;;3.63;;